Time;durP1;ratioP1;P1;durP2;ratioP2;P2;SDS_P1;SDS_P2;PMS_P1;PMS_P2;Temp;Humidity;BMP_temperature;BMP_pressure;BME280_temperature;BME280_humidity;BME280_pressure;Samples;Min_cycle;Max_cycle;Signal;HPM_P1;HPM_P2
2024/04/15 00:01:28;;;;;;;6.40;2.25;;;;;;;9.57;78.92;101511.34;5348858;26;20231;-56
2024/04/15 00:03:53;;;;;;;7.88;2.05;;;;;;;9.54;79.41;101507.84;5349815;26;20361;-56
2024/04/15 00:06:18;;;;;;;7.15;2.28;;;;;;;9.55;79.32;101486.41;5350699;26;20231;-56
2024/04/15 00:08:44;;;;;;;12.68;2.17;;;;;;;9.71;78.68;101491.31;5328557;26;20245;-58
2024/04/15 00:11:09;;;;;;;5.63;2.30;;;;;;;9.63;79.22;101476.38;5351471;26;20378;-56
2024/04/15 00:13:34;;;;;;;7.25;1.90;;;;;;;9.68;79.44;101481.59;5319963;26;20332;-56
2024/04/15 00:16:00;;;;;;;4.78;1.63;;;;;;;9.74;78.66;101472.50;5351054;26;20722;-55
2024/04/15 00:18:25;;;;;;;5.85;2.15;;;;;;;9.72;78.59;101469.88;5349837;26;20235;-56
2024/04/15 00:20:58;;;;;;;12.30;2.30;;;;;;;9.64;79.14;101459.41;5350469;26;20273;-56
2024/04/15 00:23:23;;;;;;;8.68;2.45;;;;;;;9.78;78.29;101450.09;5350010;26;20243;-56
2024/04/15 00:25:53;;;;;;;9.10;1.83;;;;;;;9.86;77.65;101450.72;5349519;26;20235;-56
2024/04/15 00:28:18;;;;;;;8.25;1.70;;;;;;;9.94;76.41;101440.69;5349737;26;20778;-55
2024/04/15 00:30:46;;;;;;;6.55;1.85;;;;;;;9.98;76.68;101434.31;5349540;26;20247;-56
2024/04/15 00:33:12;;;;;;;7.22;1.98;;;;;;;10.02;75.97;101428.88;5352177;26;20247;-56
2024/04/15 00:35:42;;;;;;;6.45;1.63;;;;;;;9.96;76.06;101414.75;5351449;26;20374;-56
2024/04/15 00:38:07;;;;;;;10.18;2.10;;;;;;;10.03;75.60;101403.84;5352676;26;20250;-56
2024/04/15 00:40:33;;;;;;;5.68;2.47;;;;;;;10.15;75.11;101406.13;5354080;26;20658;-57
2024/04/15 00:42:58;;;;;;;4.68;1.50;;;;;;;9.78;76.64;101405.47;5353546;26;20235;-56
2024/04/15 00:45:31;;;;;;;7.68;1.50;;;;;;;9.94;77.07;101408.56;5353508;26;20325;-55
2024/04/15 00:47:57;;;;;;;6.47;1.67;;;;;;;10.04;76.38;101398.44;5353190;26;20333;-55
2024/04/15 00:50:24;;;;;;;11.45;1.90;;;;;;;10.09;76.23;101390.25;5352051;26;20278;-56
2024/04/15 00:52:50;;;;;;;9.93;2.42;;;;;;;10.08;75.88;101375.16;5349670;26;20645;-55
2024/04/15 00:55:15;;;;;;;11.88;2.63;;;;;;;10.20;75.69;101377.41;5350703;26;20234;-56
2024/04/15 00:57:43;;;;;;;6.40;1.95;;;;;;;10.05;75.71;101356.50;5351284;26;20262;-56
2024/04/15 01:00:11;;;;;;;5.65;1.90;;;;;;;9.97;76.66;101387.06;5348826;26;20236;-56
2024/04/15 01:02:36;;;;;;;8.02;2.83;;;;;;;9.90;78.29;101382.81;5348525;26;20609;-56
2024/04/15 01:05:03;;;;;;;7.38;2.00;;;;;;;9.88;78.54;101373.97;5348287;26;20239;-56
2024/04/15 01:07:29;;;;;;;11.23;2.08;;;;;;;9.80;79.10;101355.50;5350471;26;20309;-56
2024/04/15 01:09:55;;;;;;;5.90;2.17;;;;;;;9.98;78.86;101363.84;5315674;26;20623;-55
2024/04/15 01:12:20;;;;;;;6.63;2.05;;;;;;;10.04;80.13;101358.28;5319486;26;20243;-56
2024/04/15 01:14:45;;;;;;;10.40;1.75;;;;;;;10.02;80.99;101344.09;5349932;26;20290;-56
2024/04/15 01:17:11;;;;;;;6.53;2.28;;;;;;;10.01;81.25;101347.69;5350127;26;20286;-57
2024/04/15 01:19:36;;;;;;;7.68;2.30;;;;;;;9.71;82.38;101315.66;5350245;26;20760;-56
2024/04/15 01:22:04;;;;;;;5.88;2.08;;;;;;;10.06;81.90;101332.38;5350531;26;20274;-56
2024/04/15 01:24:29;;;;;;;4.88;1.88;;;;;;;10.39;79.94;101334.00;5350573;26;20251;-57
2024/04/15 01:26:54;;;;;;;9.07;2.20;;;;;;;10.25;80.39;101329.94;5350592;26;20238;-55
2024/04/15 01:29:20;;;;;;;8.98;2.08;;;;;;;10.11;81.17;101318.84;5350289;26;20314;-56
2024/04/15 01:31:45;;;;;;;6.70;2.15;;;;;;;9.98;81.75;101318.34;5348402;26;20336;-56
2024/04/15 01:34:10;;;;;;;11.20;2.60;;;;;;;10.12;81.39;101313.44;5350127;26;20699;-56
2024/04/15 01:36:36;;;;;;;10.88;2.25;;;;;;;10.17;81.53;101308.78;5350795;26;20293;-56
2024/04/15 01:39:01;;;;;;;6.03;2.10;;;;;;;10.20;81.65;101307.81;5349655;26;20285;-57
2024/04/15 01:41:27;;;;;;;7.40;3.15;;;;;;;10.10;82.81;101301.88;5348224;26;20239;-56
2024/04/15 01:43:52;;;;;;;10.93;2.38;;;;;;;10.20;82.51;101298.88;5350005;26;20243;-56
2024/04/15 01:46:17;;;;;;;6.07;2.03;;;;;;;10.11;83.16;101294.75;5348068;26;20306;-56
2024/04/15 01:48:43;;;;;;;6.28;2.58;;;;;;;10.07;84.18;101296.63;5350234;26;20235;-56
2024/04/15 01:51:08;;;;;;;12.20;3.03;;;;;;;10.08;85.13;101297.53;5350318;26;20243;-56
2024/04/15 01:53:33;;;;;;;6.28;2.42;;;;;;;10.07;85.70;101291.28;5349489;26;20613;-55
2024/04/15 01:55:59;;;;;;;6.55;2.42;;;;;;;10.20;85.98;101288.19;5348104;26;20251;-56
2024/04/15 01:58:24;;;;;;;8.65;2.35;;;;;;;10.00;87.27;101279.03;5349669;26;20235;-56
2024/04/15 02:00:49;;;;;;;11.13;2.88;;;;;;;9.91;88.42;101268.66;5349343;26;20234;-56
2024/04/15 02:03:15;;;;;;;9.05;2.80;;;;;;;10.06;88.63;101276.16;5349595;26;20302;-56
2024/04/15 02:05:40;;;;;;;13.38;2.28;;;;;;;10.17;88.51;101262.41;5349193;26;20231;-56
2024/04/15 02:08:05;;;;;;;10.82;3.45;;;;;;;10.21;88.69;101265.84;5348581;26;20235;-56
2024/04/15 02:10:31;;;;;;;12.02;3.40;;;;;;;10.35;87.84;101271.59;5347861;26;20293;-57
2024/04/15 02:12:56;;;;;;;10.70;4.25;;;;;;;10.30;88.78;101266.38;5349617;26;20239;-56
2024/04/15 02:15:21;;;;;;;15.65;2.90;;;;;;;10.24;90.33;101269.28;5349412;26;20286;-56
2024/04/15 02:17:47;;;;;;;9.38;3.03;;;;;;;10.07;91.16;101260.97;5349705;26;20235;-56
2024/04/15 02:20:12;;;;;;;8.13;2.70;;;;;;;10.30;90.88;101258.34;5349381;26;20732;-56
2024/04/15 02:22:37;;;;;;;12.57;3.53;;;;;;;10.36;90.81;101246.59;5349787;26;20243;-56
2024/04/15 02:25:04;;;;;;;8.38;2.13;;;;;;;10.39;91.12;101251.84;5349861;26;20243;-55
2024/04/15 02:27:35;;;;;;;13.10;3.03;;;;;;;10.37;91.40;101234.06;5348643;26;20433;-56
2024/04/15 02:30:01;;;;;;;11.68;2.85;;;;;;;10.29;91.74;101226.28;5350291;26;20239;-56
2024/04/15 02:32:27;;;;;;;12.00;3.35;;;;;;;10.47;91.24;101230.13;5350468;26;20342;-56
2024/04/15 02:34:52;;;;;;;7.70;2.97;;;;;;;10.50;91.11;101225.53;5350561;26;20282;-56
2024/04/15 02:37:18;;;;;;;12.18;3.15;;;;;;;10.50;91.27;101206.78;5349501;26;20563;-56
2024/04/15 02:39:43;;;;;;;11.00;3.45;;;;;;;10.46;91.67;101217.66;5351278;26;20286;-56
2024/04/15 02:42:08;;;;;;;9.98;2.72;;;;;;;10.30;92.64;101209.28;5350333;26;20280;-56
2024/04/15 02:44:34;;;;;;;10.35;2.55;;;;;;;10.33;92.76;101203.84;5349861;26;20247;-56
2024/04/15 02:46:59;;;;;;;8.00;2.67;;;;;;;10.33;92.98;101201.19;5351029;26;20613;-56
2024/04/15 02:49:24;;;;;;;5.97;2.70;;;;;;;10.53;91.96;101201.34;5339752;26;20244;-56
2024/04/15 02:51:52;;;;;;;10.13;2.40;;;;;;;10.41;91.70;101196.41;5335777;26;20281;-56
2024/04/15 02:54:17;;;;;;;13.05;2.78;;;;;;;10.41;91.74;101188.38;5347778;26;20239;-56
2024/04/15 02:56:43;;;;;;;9.18;2.35;;;;;;;10.52;89.68;101169.22;5348426;26;20293;-56
2024/04/15 02:59:08;;;;;;;9.75;2.40;;;;;;;10.43;88.63;101177.59;5339887;26;20236;-56
2024/04/15 03:01:34;;;;;;;11.30;2.60;;;;;;;10.19;89.28;101177.53;5338751;26;20332;-56
2024/04/15 03:03:59;;;;;;;8.23;2.28;;;;;;;10.23;87.06;101160.44;5350489;26;20242;-56
2024/04/15 03:06:24;;;;;;;12.95;2.78;;;;;;;10.14;86.13;101158.09;5350764;26;20285;-57
2024/04/15 03:08:50;;;;;;;3.67;1.65;;;;;;;10.14;85.49;101155.44;5350321;26;20586;-56
2024/04/15 03:11:15;;;;;;;13.27;2.00;;;;;;;10.00;85.76;101156.78;5350386;26;20247;-55
2024/04/15 03:13:41;;;;;;;12.43;2.70;;;;;;;9.70;86.39;101160.53;5350529;26;20242;-58
2024/04/15 03:16:06;;;;;;;8.18;2.38;;;;;;;9.70;86.55;101152.53;5352596;26;20289;-55
2024/04/15 03:18:31;;;;;;;11.98;2.72;;;;;;;9.63;85.84;101149.16;5352130;26;20298;-58
2024/04/15 03:20:57;;;;;;;11.43;3.15;;;;;;;9.79;85.30;101152.19;5353161;26;20239;-57
2024/04/15 03:23:22;;;;;;;9.52;2.97;;;;;;;9.97;84.35;101146.19;5352209;26;20235;-55
2024/04/15 03:25:48;;;;;;;15.45;2.58;;;;;;;9.94;84.19;101142.75;5352715;26;20351;-57
2024/04/15 03:28:13;;;;;;;14.30;2.72;;;;;;;9.91;85.61;101133.03;5352039;26;20311;-57
2024/04/15 03:30:38;;;;;;;7.40;1.90;;;;;;;9.90;84.84;101131.28;5354572;26;20281;-56
2024/04/15 03:33:04;;;;;;;8.45;2.00;;;;;;;9.95;85.04;101113.28;5352353;26;20587;-58
2024/04/15 03:35:29;;;;;;;4.05;1.90;;;;;;;9.74;86.69;101122.94;5349761;26;20235;-56
2024/04/15 03:37:55;;;;;;;4.90;2.15;;;;;;;9.74;86.82;101106.88;5350707;26;20334;-56
2024/04/15 03:40:20;;;;;;;11.05;2.55;;;;;;;9.87;86.52;101098.41;5352192;26;20728;-56
2024/04/15 03:42:45;;;;;;;8.63;2.28;;;;;;;9.97;86.94;101097.16;5352331;26;20273;-56
2024/04/15 03:45:11;;;;;;;9.63;2.33;;;;;;;10.04;85.42;101098.66;5350906;26;20242;-57
2024/04/15 03:47:36;;;;;;;11.25;2.15;;;;;;;9.72;86.02;101090.00;5353039;26;20245;-56
2024/04/15 03:50:01;;;;;;;6.22;1.77;;;;;;;9.94;85.00;101083.91;5353807;26;20344;-57
2024/04/15 03:52:27;;;;;;;6.63;1.90;;;;;;;9.88;84.78;101089.47;5353497;26;20542;-57
2024/04/15 03:54:52;;;;;;;9.57;2.28;;;;;;;10.18;83.04;101071.38;5353755;26;20340;-57
2024/04/15 03:57:18;;;;;;;12.18;2.47;;;;;;;10.17;83.58;101078.53;5352430;26;20293;-57
2024/04/15 03:59:43;;;;;;;11.93;2.20;;;;;;;10.03;84.12;101063.94;5352643;26;20685;-57
2024/04/15 04:02:10;;;;;;;8.27;2.40;;;;;;;10.01;85.13;101053.28;5352342;26;20246;-56
2024/04/15 04:04:36;;;;;;;12.98;3.30;;;;;;;9.93;86.40;101058.06;5353544;26;20281;-57
2024/04/15 04:07:01;;;;;;;7.82;2.55;;;;;;;9.64;89.27;101055.50;5351715;26;20585;-56
2024/04/15 04:09:26;;;;;;;9.15;1.88;;;;;;;9.64;89.61;101042.13;5351804;26;20239;-57
2024/04/15 04:11:53;;;;;;;16.98;2.83;;;;;;;9.60;89.09;101039.59;5352306;26;20271;-57
2024/04/15 04:14:18;;;;;;;6.25;2.20;;;;;;;9.33;90.88;101033.47;5352427;26;20813;-57
2024/04/15 04:16:43;;;;;;;7.60;2.15;;;;;;;9.33;91.91;101044.16;5351352;26;20235;-55
2024/04/15 04:19:09;;;;;;;5.70;1.80;;;;;;;9.28;91.04;101010.41;5351508;26;20576;-55
2024/04/15 04:21:34;;;;;;;8.07;2.30;;;;;;;9.60;90.95;101040.50;5329020;26;20238;-57
2024/04/15 04:23:59;;;;;;;11.45;2.47;;;;;;;9.53;91.47;101036.28;5350651;26;20281;-56
2024/04/15 04:26:25;;;;;;;8.23;2.28;;;;;;;9.59;92.52;101032.53;5350205;26;20635;-56
2024/04/15 04:28:50;;;;;;;11.05;3.22;;;;;;;9.54;92.95;101032.69;5352168;26;20255;-55
2024/04/15 04:31:16;;;;;;;17.42;2.85;;;;;;;9.39;93.82;101025.22;5354571;26;20235;-55
2024/04/15 04:33:41;;;;;;;18.67;2.85;;;;;;;9.36;94.34;101019.97;5380553;26;20247;-56
2024/04/15 04:36:07;;;;;;;7.78;2.15;;;;;;;9.31;96.00;101019.25;5353952;26;20231;-56
2024/04/15 04:38:32;;;;;;;10.65;1.98;;;;;;;9.45;94.58;100999.13;5354007;26;20235;-55
2024/04/15 04:40:58;;;;;;;10.23;2.22;;;;;;;9.51;95.62;101007.84;5355140;26;20285;-55
2024/04/15 04:43:24;;;;;;;11.90;2.45;;;;;;;9.39;95.87;101006.50;5355561;26;20333;-55
2024/04/15 04:45:49;;;;;;;5.63;2.42;;;;;;;9.36;96.14;100999.47;5354059;26;20251;-55
2024/04/15 04:48:15;;;;;;;10.13;2.40;;;;;;;9.46;95.58;101003.56;5351295;26;20235;-58
2024/04/15 04:50:40;;;;;;;15.88;3.15;;;;;;;9.61;95.67;101003.91;5351412;26;20733;-55
2024/04/15 04:53:05;;;;;;;11.40;2.45;;;;;;;9.59;95.17;100993.28;5351601;26;20286;-58
2024/04/15 04:55:33;;;;;;;15.52;2.50;;;;;;;9.46;94.50;100992.88;5350998;26;20243;-57
2024/04/15 04:57:58;;;;;;;10.00;2.40;;;;;;;9.64;94.25;100985.09;5352038;26;20760;-58
2024/04/15 05:00:23;;;;;;;10.55;3.40;;;;;;;9.52;94.65;100969.50;5352924;26;20236;-58
2024/04/15 05:02:49;;;;;;;11.85;2.08;;;;;;;9.56;94.91;100985.38;5351591;26;20239;-56
2024/04/15 05:05:14;;;;;;;11.82;2.08;;;;;;;9.38;94.96;100978.88;5350373;26;20227;-58
2024/04/15 05:07:40;;;;;;;8.85;2.40;;;;;;;9.40;96.34;100978.81;5349865;26;20605;-55
2024/04/15 05:10:05;;;;;;;10.70;3.05;;;;;;;9.70;95.17;100981.31;5349673;26;20235;-55
2024/04/15 05:12:31;;;;;;;7.97;2.40;;;;;;;9.71;95.73;100967.88;5349915;26;20575;-57
2024/04/15 05:14:56;;;;;;;11.82;2.83;;;;;;;9.54;96.84;100962.28;5326432;26;20279;-57
2024/04/15 05:17:21;;;;;;;10.10;2.47;;;;;;;9.48;96.55;100958.03;5348869;26;20238;-56
2024/04/15 05:19:47;;;;;;;13.75;2.33;;;;;;;9.68;96.10;100965.31;5348810;26;20305;-58
2024/04/15 05:22:12;;;;;;;11.65;2.38;;;;;;;9.47;96.79;100956.28;5347673;26;20286;-57
2024/04/15 05:24:37;;;;;;;8.68;2.42;;;;;;;9.49;96.32;100943.72;5348868;26;20767;-57
2024/04/15 05:27:03;;;;;;;14.48;2.80;;;;;;;9.48;97.10;100944.69;5347111;26;20286;-58
2024/04/15 05:29:28;;;;;;;10.07;2.83;;;;;;;9.77;96.23;100940.00;5348067;26;20285;-58
2024/04/15 05:31:54;;;;;;;15.20;3.42;;;;;;;9.73;96.44;100935.72;5348453;26;20293;-57
2024/04/15 05:34:19;;;;;;;10.57;2.17;;;;;;;9.54;97.15;100927.50;5348515;26;20235;-57
2024/04/15 05:36:44;;;;;;;5.38;2.50;;;;;;;9.65;96.29;100925.31;5348879;26;20261;-57
2024/04/15 05:39:10;;;;;;;8.90;1.88;;;;;;;9.76;95.47;100930.25;5348583;26;20289;-57
2024/04/15 05:41:35;;;;;;;15.40;2.28;;;;;;;10.01;93.46;100938.19;5348413;26;20344;-57
2024/04/15 05:44:00;;;;;;;7.82;2.35;;;;;;;9.76;93.77;100917.75;5348037;26;20290;-57
2024/04/15 05:46:26;;;;;;;11.50;2.70;;;;;;;9.77;94.50;100921.28;5348962;26;20245;-57
2024/04/15 05:48:51;;;;;;;9.77;2.30;;;;;;;9.60;93.93;100909.44;5349211;26;20231;-56
2024/04/15 05:51:19;;;;;;;9.88;2.13;;;;;;;9.63;94.07;100908.44;5350109;26;20349;-56
2024/04/15 05:53:45;;;;;;;12.27;1.98;;;;;;;9.73;93.57;100914.31;5347616;26;20258;-57
2024/04/15 05:56:10;;;;;;;6.13;2.35;;;;;;;9.84;92.91;100905.88;5349358;26;20286;-58
2024/04/15 05:58:36;;;;;;;9.18;2.30;;;;;;;9.78;92.75;100899.81;5348856;26;20235;-56
2024/04/15 06:01:01;;;;;;;9.45;2.25;;;;;;;9.98;92.10;100899.06;5347165;26;20829;-57
2024/04/15 06:03:27;;;;;;;8.70;2.10;;;;;;;9.72;92.90;100877.81;5348252;26;20281;-58
2024/04/15 06:05:52;;;;;;;6.88;2.05;;;;;;;10.04;92.79;100903.28;5348753;26;20724;-56
2024/04/15 06:08:17;;;;;;;12.27;2.22;;;;;;;10.15;90.97;100889.47;5346678;26;20313;-57
2024/04/15 06:10:46;;;;;;;12.07;1.92;;;;;;;10.19;91.22;100883.06;5347943;26;20289;-57
2024/04/15 06:13:13;;;;;;;7.32;1.88;;;;;;;10.49;89.96;100878.28;5347849;26;20255;-57
2024/04/15 06:15:39;;;;;;;15.48;1.92;;;;;;;10.22;90.07;100866.88;5345839;26;20332;-56
2024/04/15 06:18:07;;;;;;;13.32;2.78;;;;;;;10.18;90.42;100878.63;5348510;26;20243;-57
2024/04/15 06:20:33;;;;;;;11.98;2.28;;;;;;;10.23;90.84;100873.97;5350390;26;20317;-56
2024/04/15 06:22:58;;;;;;;15.30;3.42;;;;;;;10.18;90.04;100863.47;5349897;26;20250;-56
2024/04/15 06:25:24;;;;;;;9.10;2.15;;;;;;;10.16;89.81;100868.00;5347675;26;20274;-57
2024/04/15 06:27:49;;;;;;;12.18;2.25;;;;;;;10.33;89.61;100845.91;5347420;26;20235;-57
2024/04/15 06:30:14;;;;;;;7.13;2.38;;;;;;;10.48;88.32;100862.28;5347997;26;20239;-56
2024/04/15 06:32:40;;;;;;;11.18;2.17;;;;;;;10.37;88.40;100835.06;5347632;26;20239;-57
2024/04/15 06:35:06;;;;;;;7.18;2.28;;;;;;;10.41;87.22;100831.34;5347494;26;20282;-56
2024/04/15 06:37:31;;;;;;;5.88;1.80;;;;;;;10.44;86.01;100826.69;5347560;26;20306;-57
2024/04/15 06:39:56;;;;;;;11.82;3.03;;;;;;;10.51;84.89;100827.34;5348105;26;20239;-57
2024/04/15 06:42:22;;;;;;;10.93;1.73;;;;;;;10.40;84.92;100803.69;5346936;26;20767;-58
2024/04/15 06:44:47;;;;;;;10.65;1.98;;;;;;;10.65;84.99;100808.84;5347200;26;20285;-59
2024/04/15 06:47:13;;;;;;;15.65;1.80;;;;;;;10.65;85.42;100800.81;5345188;26;20573;-59
2024/04/15 06:49:39;;;;;;;6.35;2.08;;;;;;;10.83;85.16;100793.75;5346942;26;20274;-59
2024/04/15 06:52:04;;;;;;;12.02;3.28;;;;;;;10.65;86.73;100789.22;5347020;26;20606;-59
2024/04/15 06:54:30;;;;;;;13.95;2.53;;;;;;;10.70;88.39;100782.75;5346601;26;20247;-58
2024/04/15 06:56:55;;;;;;;5.25;1.75;;;;;;;10.78;87.96;100776.16;5348197;26;20645;-57
2024/04/15 06:59:20;;;;;;;15.40;2.00;;;;;;;10.96;87.71;100771.75;5348751;26;20286;-57
2024/04/15 07:01:46;;;;;;;10.30;2.00;;;;;;;11.01;86.61;100762.59;5348260;26;20763;-58
2024/04/15 07:04:11;;;;;;;10.15;2.15;;;;;;;11.09;85.01;100747.94;5347980;26;20247;-58
2024/04/15 07:06:36;;;;;;;8.45;2.00;;;;;;;10.96;84.50;100745.81;5347474;26;20281;-58
2024/04/15 07:09:02;;;;;;;11.55;2.28;;;;;;;10.99;85.01;100745.69;5347546;26;20243;-57
2024/04/15 07:11:27;;;;;;;8.48;2.53;;;;;;;10.81;84.87;100738.50;5347557;26;20235;-57
2024/04/15 07:13:52;;;;;;;9.88;1.98;;;;;;;10.65;84.88;100716.91;5347971;26;20235;-57
2024/04/15 07:16:18;;;;;;;10.63;2.15;;;;;;;10.57;84.37;100724.41;5347300;26;20365;-58
2024/04/15 07:18:43;;;;;;;11.70;2.05;;;;;;;10.46;85.14;100723.09;5347435;26;20336;-58
2024/04/15 07:21:09;;;;;;;6.10;1.60;;;;;;;10.41;85.25;100692.09;5347451;26;20239;-58
2024/04/15 07:23:34;;;;;;;10.43;1.77;;;;;;;10.64;84.55;100715.16;5345423;26;20243;-58
2024/04/15 07:26:00;;;;;;;10.15;2.40;;;;;;;10.67;84.41;100698.94;5347082;26;20282;-58
2024/04/15 07:28:26;;;;;;;12.02;2.25;;;;;;;10.69;83.64;100703.28;5338048;26;20595;-57
2024/04/15 07:30:59;;;;;;;12.80;1.90;;;;;;;10.52;83.85;100688.00;5347359;26;20227;-56
2024/04/15 07:33:24;;;;;;;9.20;2.00;;;;;;;10.57;83.48;100669.03;5329652;26;20235;-57
2024/04/15 07:36:01;;;;;;;7.32;1.65;;;;;;;10.71;83.48;100658.53;5399394;26;20291;-57
2024/04/15 07:38:26;;;;;;;11.13;1.90;;;;;;;10.72;83.54;100648.72;5348671;26;20234;-57
2024/04/15 07:40:53;;;;;;;13.38;2.38;;;;;;;10.73;83.05;100646.91;5348287;26;20376;-57
2024/04/15 07:43:19;;;;;;;12.48;1.80;;;;;;;10.56;83.26;100604.81;5348988;26;20611;-56
2024/04/15 07:45:44;;;;;;;9.50;1.92;;;;;;;10.62;82.06;100613.44;5350063;26;20231;-58
2024/04/15 07:48:10;;;;;;;10.38;1.50;;;;;;;10.79;82.07;100631.38;5350239;26;20286;-57
2024/04/15 07:50:35;;;;;;;9.50;2.17;;;;;;;11.01;81.74;100625.00;5351849;26;20239;-58
2024/04/15 07:53:01;;;;;;;12.82;3.85;;;;;;;10.97;82.05;100600.16;5352148;26;20235;-57
2024/04/15 07:55:26;;;;;;;9.35;2.05;;;;;;;11.06;83.31;100594.34;5351743;26;20286;-57
2024/04/15 07:57:53;;;;;;;8.70;1.67;;;;;;;11.03;83.42;100596.31;5352328;26;20282;-57
2024/04/15 08:00:18;;;;;;;10.07;2.28;;;;;;;10.97;83.57;100589.44;5350577;26;20281;-58
2024/04/15 08:02:44;;;;;;;11.15;1.90;;;;;;;10.82;83.27;100592.88;5384691;26;20239;-58
2024/04/15 08:05:09;;;;;;;15.57;2.40;;;;;;;10.75;83.52;100578.91;5350970;26;20632;-57
2024/04/15 08:07:35;;;;;;;9.63;1.63;;;;;;;10.73;83.57;100577.22;5351818;26;20287;-57
2024/04/15 08:10:01;;;;;;;11.30;2.47;;;;;;;10.50;84.42;100539.88;5348361;26;20243;-58
2024/04/15 08:12:26;;;;;;;7.18;1.77;;;;;;;10.44;84.80;100547.34;5349493;26;20240;-58
2024/04/15 08:14:51;;;;;;;12.60;2.05;;;;;;;10.56;87.68;100546.75;5352091;26;20262;-58
2024/04/15 08:17:17;;;;;;;10.20;2.55;;;;;;;10.59;89.03;100551.97;5352852;26;20235;-57
2024/04/15 08:19:42;;;;;;;15.55;2.60;;;;;;;10.62;92.32;100535.75;5348716;26;20596;-58
2024/04/15 08:22:07;;;;;;;11.38;2.30;;;;;;;10.44;92.97;100526.78;5351014;26;20243;-57
2024/04/15 08:24:33;;;;;;;14.52;2.33;;;;;;;10.29;93.58;100514.97;5349860;26;20695;-56
2024/04/15 08:26:58;;;;;;;8.68;2.78;;;;;;;10.40;94.04;100513.59;5349773;26;20231;-57
2024/04/15 08:29:23;;;;;;;10.55;1.75;;;;;;;10.33;94.69;100508.53;5349459;26;20278;-56
2024/04/15 08:31:49;;;;;;;16.90;2.10;;;;;;;10.42;94.44;100488.50;5350376;26;20286;-57
2024/04/15 08:34:14;;;;;;;13.25;2.10;;;;;;;10.51;94.26;100481.84;5350065;26;20720;-57
2024/04/15 08:36:39;;;;;;;13.73;2.13;;;;;;;10.70;94.43;100466.63;5351443;26;20246;-56
2024/04/15 08:39:05;;;;;;;10.52;2.17;;;;;;;10.75;93.53;100473.53;5350894;26;20763;-57
2024/04/15 08:41:38;;;;;;;12.90;2.97;;;;;;;10.88;92.34;100474.66;5339456;26;20589;-57
2024/04/15 08:44:05;;;;;;;11.30;2.17;;;;;;;10.87;91.89;100462.19;5351203;26;20243;-56
2024/04/15 08:46:44;;;;;;;12.07;2.65;;;;;;;10.98;92.69;100451.81;5351375;26;20294;-57
2024/04/15 08:49:09;;;;;;;13.23;2.72;;;;;;;10.95;92.51;100443.94;5350410;26;20348;-57
2024/04/15 08:51:35;;;;;;;18.05;3.13;;;;;;;10.78;93.89;100430.50;5349986;26;20727;-58
2024/04/15 08:54:00;;;;;;;10.00;2.40;;;;;;;10.73;93.96;100438.78;5350441;26;20278;-57
2024/04/15 08:56:26;;;;;;;19.60;3.13;;;;;;;10.71;93.55;100422.78;5347204;26;20289;-58
2024/04/15 08:58:55;;;;;;;14.82;2.88;;;;;;;10.75;93.48;100428.00;5406618;26;20251;-58
2024/04/15 09:01:21;;;;;;;10.73;3.17;;;;;;;10.71;93.52;100421.94;5349682;26;20298;-57
2024/04/15 09:03:48;;;;;;;15.82;3.45;;;;;;;10.61;93.77;100400.09;5349174;26;20255;-57
2024/04/15 09:06:15;;;;;;;14.00;3.63;;;;;;;10.52;94.09;100421.97;5344341;26;20245;-57
2024/04/15 09:08:43;;;;;;;14.27;4.25;;;;;;;10.45;94.49;100407.16;5348595;26;20235;-56
2024/04/15 09:11:08;;;;;;;14.30;3.70;;;;;;;10.52;96.34;100395.19;5349859;26;20311;-56
2024/04/15 09:13:34;;;;;;;19.15;5.50;;;;;;;10.49;97.30;100392.66;5349228;26;20255;-57
2024/04/15 09:15:59;;;;;;;17.42;4.05;;;;;;;10.68;97.94;100384.59;5349009;26;20251;-58
2024/04/15 09:18:24;;;;;;;15.13;3.90;;;;;;;10.68;97.78;100377.41;5348675;26;20239;-56
2024/04/15 09:20:51;;;;;;;15.57;3.40;;;;;;;10.58;98.40;100357.41;5347171;26;20235;-57
2024/04/15 09:23:16;;;;;;;19.58;4.85;;;;;;;10.60;97.94;100351.97;5347000;26;20251;-56
2024/04/15 09:25:41;;;;;;;18.73;3.50;;;;;;;10.53;99.69;100367.47;5347133;26;20291;-59
2024/04/15 09:28:07;;;;;;;16.48;3.22;;;;;;;10.52;100.00;100345.19;5345840;26;20268;-57
2024/04/15 09:30:32;;;;;;;16.40;4.97;;;;;;;10.47;100.00;100360.59;5347284;26;20285;-57
2024/04/15 09:32:59;;;;;;;13.05;2.72;;;;;;;10.64;100.00;100332.09;5347684;26;20286;-58
2024/04/15 09:35:26;;;;;;;15.02;4.25;;;;;;;10.92;99.45;100331.53;5347794;26;20639;-58
2024/04/15 09:37:53;;;;;;;13.93;3.35;;;;;;;11.04;98.58;100324.66;5342039;26;20286;-57
2024/04/15 09:40:21;;;;;;;18.55;3.30;;;;;;;11.19;97.39;100314.91;5347218;26;20577;-58
2024/04/15 09:42:47;;;;;;;8.05;2.58;;;;;;;10.90;95.57;100314.66;5348712;26;20285;-57
2024/04/15 09:45:12;;;;;;;13.15;2.75;;;;;;;10.83;95.48;100298.06;5374721;26;20286;-57
2024/04/15 09:47:41;;;;;;;16.80;3.50;;;;;;;10.67;99.02;100291.75;5348673;26;20235;-57
2024/04/15 09:50:07;;;;;;;15.38;3.17;;;;;;;10.66;100.00;100290.91;5349030;26;20657;-57
2024/04/15 09:52:35;;;;;;;21.23;4.18;;;;;;;10.28;100.00;100272.28;5348818;26;20255;-58
2024/04/15 09:55:14;;;;;;;9.65;3.38;;;;;;;9.82;100.00;100298.69;5346387;26;20261;-59
2024/04/15 09:57:43;;;;;;;20.00;3.00;;;;;;;9.58;100.00;100292.69;5346562;26;20289;-57
2024/04/15 10:00:19;;;;;;;8.02;1.80;;;;;;;9.43;100.00;100275.56;5348470;26;20243;-57
2024/04/15 10:03:00;;;;;;;11.23;2.50;;;;;;;9.33;100.00;100255.59;5347916;26;20282;-59
2024/04/15 10:05:28;;;;;;;19.42;3.78;;;;;;;9.32;100.00;100267.22;5341950;26;20239;-57
2024/04/15 10:07:57;;;;;;;14.73;3.13;;;;;;;9.39;100.00;100255.28;5302641;26;20275;-58
2024/04/15 10:10:23;;;;;;;19.08;4.68;;;;;;;9.19;100.00;100225.03;5346664;26;20352;-58
2024/04/15 10:12:54;;;;;;;14.73;3.47;;;;;;;9.13;100.00;100211.94;5345558;26;20243;-58
2024/04/15 10:15:21;;;;;;;8.98;2.55;;;;;;;8.90;100.00;100199.69;5347509;26;20247;-57
2024/04/15 10:18:05;;;;;;;13.10;2.70;;;;;;;9.12;100.00;100228.06;5346360;26;20632;-58
2024/04/15 10:20:42;;;;;;;16.25;3.10;;;;;;;9.46;100.00;100208.59;5341028;26;20349;-58
2024/04/15 10:23:14;;;;;;;20.38;4.43;;;;;;;9.47;100.00;100210.34;5349436;26;20716;-58
2024/04/15 10:25:41;;;;;;;16.58;3.58;;;;;;;9.33;100.00;100210.16;5340395;26;20239;-57
2024/04/15 10:28:07;;;;;;;12.68;3.38;;;;;;;8.84;100.00;100170.59;5344188;26;20236;-58
2024/04/15 10:30:33;;;;;;;24.20;4.15;;;;;;;8.30;100.00;100164.97;5348673;26;20297;-59
2024/04/15 10:33:10;;;;;;;16.30;2.55;;;;;;;8.50;100.00;100130.28;5351448;26;20250;-57
2024/04/15 10:35:37;;;;;;;20.77;3.90;;;;;;;8.65;100.00;100135.84;5335033;26;20231;-57
2024/04/15 10:38:04;;;;;;;14.40;5.78;;;;;;;8.82;100.00;100157.31;5348508;26;20239;-58
2024/04/15 10:40:31;;;;;;;14.73;3.72;;;;;;;8.91;100.00;100135.50;5347384;26;20274;-57
2024/04/15 10:42:57;;;;;;;15.35;4.50;;;;;;;9.04;100.00;100145.59;5348944;26;20275;-58
2024/04/15 10:45:25;;;;;;;8.75;4.05;;;;;;;9.15;100.00;100123.72;5348235;26;20345;-59
2024/04/15 10:47:51;;;;;;;16.65;3.65;;;;;;;9.07;100.00;100124.06;5347875;26;20243;-58
2024/04/15 10:50:16;;;;;;;16.83;4.25;;;;;;;9.01;100.00;100082.50;5347007;26;20234;-58
2024/04/15 10:52:42;;;;;;;14.98;3.92;;;;;;;8.96;100.00;100094.31;5347478;26;20352;-57
2024/04/15 10:55:07;;;;;;;14.15;3.80;;;;;;;8.91;100.00;100068.72;5348552;26;20758;-58
2024/04/15 10:57:33;;;;;;;15.93;3.45;;;;;;;8.86;100.00;100044.03;5346876;26;20247;-58
2024/04/15 10:59:59;;;;;;;11.15;4.38;;;;;;;8.93;100.00;100037.47;5347356;26;20290;-58
2024/04/15 11:02:24;;;;;;;23.25;5.43;;;;;;;8.97;100.00;100038.16;5348338;26;20231;-58
2024/04/15 11:04:50;;;;;;;21.80;4.10;;;;;;;9.22;100.00;100023.59;5347803;26;20242;-59
2024/04/15 11:07:19;;;;;;;20.38;4.50;;;;;;;9.22;100.00;100000.41;5354503;26;20618;-61
2024/04/15 11:09:44;;;;;;;20.23;4.53;;;;;;;9.27;100.00;99995.69;5395631;26;20613;-58
2024/04/15 11:12:10;;;;;;;16.60;3.42;;;;;;;9.39;100.00;99990.66;5382137;26;20234;-59
2024/04/15 11:14:36;;;;;;;21.02;3.55;;;;;;;9.42;100.00;99977.13;5360819;26;20243;-59
2024/04/15 11:17:03;;;;;;;16.42;4.05;;;;;;;9.70;100.00;99987.22;5383186;26;20238;-59